createdAt,value
2023-04-14T00:02:08.709Z,9.70
2023-04-14T00:04:36.220Z,9.75
2023-04-14T00:07:03.133Z,7.97
2023-04-14T00:09:30.329Z,16.05
2023-04-14T00:11:57.730Z,9.70
2023-04-14T00:14:24.579Z,9.07
2023-04-14T00:16:51.474Z,8.70
2023-04-14T00:19:18.374Z,5.97
2023-04-14T00:21:45.158Z,7.20
2023-04-14T00:24:11.926Z,7.53
2023-04-14T00:26:38.903Z,8.68
2023-04-14T00:29:05.845Z,6.85
2023-04-14T00:31:32.772Z,10.65
2023-04-14T00:33:59.623Z,7.97
2023-04-14T00:36:26.377Z,6.18
2023-04-14T00:38:53.190Z,6.40
2023-04-14T00:41:19.951Z,7.18
2023-04-14T00:43:46.660Z,11.25
2023-04-14T00:46:15.319Z,8.02
2023-04-14T00:48:42.174Z,6.22
2023-04-14T00:51:09.667Z,3.88
2023-04-14T00:53:36.396Z,4.18
2023-04-14T00:56:03.868Z,3.47
2023-04-14T00:58:30.746Z,3.25
2023-04-14T01:00:58.550Z,9.50
2023-04-14T01:03:26.638Z,4.40
2023-04-14T01:05:53.460Z,5.93
2023-04-14T01:08:20.763Z,5.50
2023-04-14T01:10:56.212Z,5.68
2023-04-14T01:13:45.190Z,7.20
2023-04-14T01:16:23.202Z,44.03
2023-04-14T01:19:33.546Z,6.47
2023-04-14T01:22:04.484Z,7.20
2023-04-14T01:24:37.187Z,6.68
2023-04-14T01:27:10.629Z,7.63
2023-04-14T01:29:50.219Z,8.43
2023-04-14T01:32:20.780Z,10.10
2023-04-14T01:35:09.354Z,9.57
2023-04-14T01:37:42.312Z,6.93
2023-04-14T01:40:11.897Z,6.32
2023-04-14T01:42:40.646Z,4.80
2023-04-14T01:45:11.624Z,5.25
2023-04-14T01:47:38.912Z,3.47
2023-04-14T01:50:07.163Z,3.08
2023-04-14T01:52:34.862Z,3.28
2023-04-14T01:55:06.177Z,3.65
2023-04-14T01:57:34.365Z,2.25
2023-04-14T02:00:01.828Z,3.13
2023-04-14T02:02:29.237Z,2.60
2023-04-14T02:04:57.808Z,2.60
2023-04-14T02:07:25.593Z,3.03
2023-04-14T02:09:53.952Z,4.07
2023-04-14T02:12:21.121Z,4.13
2023-04-14T02:14:48.448Z,3.83
2023-04-14T02:17:15.400Z,2.80
2023-04-14T02:19:43.724Z,3.00
2023-04-14T02:22:10.853Z,2.75
2023-04-14T02:24:37.623Z,4.10
2023-04-14T02:27:31.184Z,3.63
2023-04-14T02:29:59.135Z,3.97
2023-04-14T02:32:29.450Z,4.38
2023-04-14T02:35:02.454Z,4.82
2023-04-14T02:37:37.248Z,4.43
2023-04-14T02:40:11.226Z,6.07
2023-04-14T02:42:41.527Z,3.80
2023-04-14T02:45:13.719Z,6.90
2023-04-14T02:47:45.826Z,4.35
2023-04-14T02:50:15.186Z,3.65
2023-04-14T02:52:42.819Z,3.30
2023-04-14T02:55:11.122Z,3.08
2023-04-14T02:57:38.325Z,3.60
2023-04-14T03:00:06.698Z,3.50
2023-04-14T03:02:34.063Z,3.38
2023-04-14T03:05:01.996Z,4.90
2023-04-14T03:07:30.040Z,4.35
2023-04-14T03:09:57.506Z,5.63
2023-04-14T03:12:24.722Z,3.92
2023-04-14T03:14:51.908Z,6.55
2023-04-14T03:17:21.958Z,4.20
2023-04-14T03:19:54.802Z,4.32
2023-04-14T03:22:22.535Z,4.75
2023-04-14T03:24:50.883Z,5.00
2023-04-14T03:27:26.459Z,4.80
2023-04-14T03:29:55.370Z,7.10
2023-04-14T03:32:27.036Z,4.00
2023-04-14T03:34:55.766Z,3.70
2023-04-14T03:37:25.263Z,3.88
2023-04-14T03:39:52.722Z,6.55
2023-04-14T03:42:21.406Z,5.70
2023-04-14T03:44:53.464Z,4.35
2023-04-14T03:47:23.781Z,7.50
2023-04-14T03:49:52.105Z,5.68
2023-04-14T03:52:21.341Z,5.38
2023-04-14T03:54:48.768Z,4.70
2023-04-14T03:57:18.159Z,4.80
2023-04-14T03:59:51.191Z,4.10
2023-04-14T04:02:18.534Z,4.28
2023-04-14T04:04:46.848Z,4.72
2023-04-14T04:07:13.982Z,5.55
2023-04-14T04:09:43.140Z,4.32
2023-04-14T04:12:12.039Z,6.57
2023-04-14T04:14:42.275Z,4.97
2023-04-14T04:17:09.853Z,3.67
2023-04-14T04:19:37.500Z,4.18
2023-04-14T04:22:04.617Z,3.83
2023-04-14T04:24:38.564Z,4.15
2023-04-14T04:27:09.875Z,4.15
2023-04-14T04:29:41.632Z,4.20
2023-04-14T04:32:08.480Z,6.65
2023-04-14T04:34:35.654Z,4.43
2023-04-14T04:37:02.972Z,3.88
2023-04-14T04:39:30.267Z,7.13
2023-04-14T04:42:04.910Z,3.55
2023-04-14T04:44:33.293Z,4.03
2023-04-14T04:47:00.856Z,3.40
2023-04-14T04:49:27.715Z,3.00
2023-04-14T04:51:54.693Z,3.55
2023-04-14T04:54:21.859Z,6.00
2023-04-14T04:56:48.828Z,4.53
2023-04-14T04:59:15.752Z,3.78
2023-04-14T05:01:42.754Z,4.28
2023-04-14T05:04:09.843Z,4.70
2023-04-14T05:06:40.153Z,7.97
2023-04-14T05:09:07.194Z,3.78
2023-04-14T05:11:34.281Z,5.20
2023-04-14T05:14:01.513Z,5.68
2023-04-14T05:16:31.775Z,5.38
2023-04-14T05:18:59.768Z,4.15
2023-04-14T05:21:26.794Z,4.13
2023-04-14T05:23:53.637Z,7.35
2023-04-14T05:26:44.529Z,4.10
2023-04-14T05:29:07.365Z,4.10
2023-04-14T05:31:34.267Z,4.63
2023-04-14T05:34:01.459Z,5.97
2023-04-14T05:36:28.770Z,4.15
2023-04-14T05:38:55.627Z,5.72
2023-04-14T05:41:23.153Z,7.65
2023-04-14T05:43:50.140Z,5.85
2023-04-14T05:46:17.022Z,5.03
2023-04-14T05:48:43.720Z,4.75
2023-04-14T05:51:11.081Z,6.32
2023-04-14T05:53:38.121Z,11.15
2023-04-14T05:56:05.546Z,8.48
2023-04-14T05:58:32.509Z,7.57
2023-04-14T06:00:59.328Z,17.20
2023-04-14T06:03:26.436Z,8.70
2023-04-14T06:05:53.392Z,10.95
2023-04-14T06:08:21.086Z,9.57
2023-04-14T06:10:47.885Z,18.95
2023-04-14T06:13:16.518Z,11.23
2023-04-14T06:15:43.313Z,12.75
2023-04-14T06:18:10.247Z,11.23
2023-04-14T06:20:37.437Z,11.80
2023-04-14T06:23:05.021Z,12.15
2023-04-14T06:25:32.161Z,17.25
2023-04-14T06:27:58.981Z,12.18
2023-04-14T06:30:28.756Z,12.52
2023-04-14T06:32:55.693Z,15.55
2023-04-14T06:35:30.063Z,13.75
2023-04-14T06:37:59.953Z,14.23
2023-04-14T06:40:26.777Z,17.15
2023-04-14T06:42:53.751Z,15.50
2023-04-14T06:45:20.751Z,15.63
2023-04-14T06:47:47.671Z,14.90
2023-04-14T06:50:14.780Z,12.13
2023-04-14T06:52:41.597Z,11.98
2023-04-14T06:55:09.245Z,10.70
2023-04-14T06:57:36.322Z,15.43
2023-04-14T07:00:04.893Z,14.73
2023-04-14T07:02:32.112Z,16.15
2023-04-14T07:04:59.152Z,17.67
2023-04-14T07:07:26.053Z,15.80
2023-04-14T07:09:52.954Z,16.20
2023-04-14T07:12:19.697Z,13.05
2023-04-14T07:14:53.016Z,13.57
2023-04-14T07:17:20.140Z,20.60
2023-04-14T07:19:47.004Z,15.88
2023-04-14T07:22:13.975Z,16.30
2023-04-14T07:24:40.926Z,14.93
2023-04-14T07:27:07.868Z,18.33
2023-04-14T07:29:35.202Z,17.80
2023-04-14T07:32:02.026Z,15.43
2023-04-14T07:34:28.872Z,15.93
2023-04-14T07:36:55.664Z,17.70
2023-04-14T07:39:23.962Z,20.10
2023-04-14T07:41:51.016Z,18.85
2023-04-14T07:44:17.765Z,14.75
2023-04-14T07:46:44.964Z,17.85
2023-04-14T07:49:12.017Z,19.55
2023-04-14T07:51:38.815Z,18.73
2023-04-14T07:54:06.547Z,19.55
2023-04-14T07:56:33.681Z,18.75
2023-04-14T07:59:00.810Z,17.83
2023-04-14T08:01:27.943Z,18.45
2023-04-14T08:03:58.199Z,18.30
2023-04-14T08:06:27.086Z,19.15
2023-04-14T08:08:54.083Z,17.23
2023-04-14T08:11:21.267Z,23.30
2023-04-14T08:13:50.238Z,26.15
2023-04-14T08:16:17.500Z,19.45
2023-04-14T08:18:45.334Z,20.20
2023-04-14T08:21:12.292Z,19.55
2023-04-14T08:23:39.293Z,20.60
2023-04-14T08:26:06.187Z,16.45
2023-04-14T08:28:33.751Z,17.27
2023-04-14T08:31:00.930Z,21.52
2023-04-14T08:33:28.416Z,15.07
2023-04-14T08:35:59.455Z,15.48
2023-04-14T08:38:29.193Z,19.85
2023-04-14T08:40:57.002Z,17.48
2023-04-14T08:43:24.065Z,16.98
2023-04-14T08:45:52.052Z,15.05
2023-04-14T08:48:21.997Z,18.48
2023-04-14T08:51:07.385Z,17.20
2023-04-14T08:53:36.044Z,16.23
2023-04-14T08:56:04.605Z,16.90
2023-04-14T08:58:32.818Z,19.45
2023-04-14T09:00:59.944Z,17.02
2023-04-14T09:03:27.470Z,18.95
2023-04-14T09:05:54.927Z,18.58
2023-04-14T09:08:27.685Z,17.13
2023-04-14T09:10:55.034Z,21.45
2023-04-14T09:13:23.737Z,18.52
2023-04-14T09:15:50.748Z,16.38
2023-04-14T09:18:17.595Z,16.00
2023-04-14T09:20:48.028Z,15.93
2023-04-14T09:23:35.058Z,17.42
2023-04-14T09:26:02.694Z,20.60
2023-04-14T09:28:29.459Z,17.55
2023-04-14T09:30:56.776Z,15.40
2023-04-14T09:33:23.993Z,18.85
2023-04-14T09:35:51.695Z,15.75
2023-04-14T09:38:36.083Z,13.32
2023-04-14T09:41:04.322Z,13.38
2023-04-14T09:43:31.059Z,14.95
2023-04-14T09:46:11.194Z,10.40
2023-04-14T09:48:55.776Z,14.55
2023-04-14T09:51:24.774Z,7.20
2023-04-14T09:53:53.526Z,6.65
2023-04-14T09:56:21.559Z,8.23
2023-04-14T09:58:50.612Z,8.05
2023-04-14T10:01:21.034Z,5.93
2023-04-14T10:03:48.979Z,6.43
2023-04-14T10:06:20.449Z,5.82
2023-04-14T10:08:49.461Z,6.30
2023-04-14T10:11:21.335Z,5.75
2023-04-14T10:13:55.969Z,5.28
2023-04-14T10:16:24.184Z,8.15
2023-04-14T10:18:53.897Z,4.80
2023-04-14T10:21:23.406Z,6.40
2023-04-14T10:23:51.393Z,8.98
2023-04-14T10:26:19.421Z,7.65
2023-04-14T10:28:52.143Z,6.75
2023-04-14T10:31:33.969Z,4.93
2023-04-14T10:34:16.545Z,5.72
2023-04-14T10:36:44.043Z,6.22
2023-04-14T10:39:12.160Z,4.55
2023-04-14T10:41:49.498Z,3.03
2023-04-14T10:44:35.763Z,6.65
2023-04-14T10:47:05.629Z,5.65
2023-04-14T10:49:40.843Z,9.00
2023-04-14T10:52:38.464Z,6.15
2023-04-14T10:55:10.285Z,3.78
2023-04-14T10:57:41.629Z,6.70
2023-04-14T11:00:26.585Z,6.47
2023-04-14T11:03:15.475Z,10.00
2023-04-14T11:05:43.736Z,7.05
2023-04-14T11:08:27.714Z,9.80
2023-04-14T11:11:04.841Z,9.90
2023-04-14T11:13:32.551Z,5.57
2023-04-14T11:16:04.499Z,4.20
2023-04-14T11:18:38.079Z,4.55
2023-04-14T11:21:06.839Z,6.83
2023-04-14T11:23:35.486Z,7.00
2023-04-14T11:26:02.553Z,5.57
2023-04-14T11:28:34.063Z,7.40
2023-04-14T11:31:03.889Z,7.32
2023-04-14T11:33:36.163Z,6.00
2023-04-14T11:36:04.736Z,4.72
2023-04-14T11:38:31.971Z,6.57
2023-04-14T11:40:58.798Z,4.65
2023-04-14T11:43:25.850Z,5.85
2023-04-14T11:45:52.862Z,5.50
2023-04-14T11:48:20.703Z,5.38
2023-04-14T11:50:48.946Z,6.70
2023-04-14T11:53:20.051Z,5.57
2023-04-14T11:55:48.635Z,6.05
2023-04-14T11:58:19.600Z,5.50
2023-04-14T12:00:49.212Z,4.35
2023-04-14T12:03:16.532Z,5.70
2023-04-14T12:05:43.990Z,4.55
2023-04-14T12:08:12.891Z,4.75
2023-04-14T12:10:42.336Z,6.13
2023-04-14T12:13:11.463Z,4.93
2023-04-14T12:15:40.442Z,6.32
2023-04-14T12:18:14.217Z,4.45
2023-04-14T12:20:55.238Z,5.38
2023-04-14T12:23:23.030Z,4.50
2023-04-14T12:25:50.432Z,3.25
2023-04-14T12:28:25.416Z,4.38
2023-04-14T12:30:53.247Z,5.45
2023-04-14T12:33:24.026Z,5.72
2023-04-14T12:35:51.510Z,4.90
2023-04-14T12:38:18.380Z,4.32
2023-04-14T12:40:47.363Z,5.45
2023-04-14T12:43:15.241Z,5.50
2023-04-14T12:45:44.205Z,7.57
2023-04-14T12:48:12.850Z,5.80
2023-04-14T12:50:39.894Z,6.00
2023-04-14T12:53:26.681Z,5.50
2023-04-14T12:56:16.730Z,6.85
2023-04-14T12:58:58.875Z,4.80
2023-04-14T13:01:26.031Z,4.22
2023-04-14T13:03:56.176Z,4.15
2023-04-14T13:06:24.381Z,3.80
2023-04-14T13:08:55.338Z,6.15
2023-04-14T13:11:23.872Z,6.07
2023-04-14T13:13:54.409Z,5.97
2023-04-14T13:16:22.584Z,4.55
2023-04-14T13:18:53.028Z,6.88
2023-04-14T13:21:19.902Z,5.95
2023-04-14T13:23:46.786Z,4.82
2023-04-14T13:26:13.936Z,7.32
2023-04-14T13:28:40.823Z,5.25
2023-04-14T13:31:07.763Z,4.82
2023-04-14T13:33:34.841Z,5.18
2023-04-14T13:36:02.954Z,4.25
2023-04-14T13:38:30.080Z,3.08
2023-04-14T13:40:57.217Z,4.35
2023-04-14T13:43:23.908Z,4.68
2023-04-14T13:45:51.338Z,5.25
2023-04-14T13:48:18.373Z,2.90
2023-04-14T13:50:45.129Z,5.18
2023-04-14T13:53:12.607Z,4.25
2023-04-14T13:55:39.502Z,6.40
2023-04-14T13:58:06.370Z,4.85
2023-04-14T14:00:33.421Z,4.70
2023-04-14T14:03:00.796Z,5.78
2023-04-14T14:05:28.228Z,5.97
2023-04-14T14:07:57.580Z,3.53
2023-04-14T14:10:24.508Z,4.38
2023-04-14T14:12:52.103Z,3.58
2023-04-14T14:15:19.741Z,4.05
2023-04-14T14:17:46.745Z,3.58
2023-04-14T14:20:14.202Z,6.35
2023-04-14T14:22:41.362Z,4.63
2023-04-14T14:25:19.384Z,3.70
2023-04-14T14:27:48.508Z,4.90
2023-04-14T14:30:16.339Z,4.57
2023-04-14T14:32:43.417Z,2.90
2023-04-14T14:35:10.858Z,5.72
2023-04-14T14:37:38.100Z,3.63
2023-04-14T14:40:05.847Z,5.05
2023-04-14T14:42:33.409Z,5.68
2023-04-14T14:45:02.062Z,7.35
2023-04-14T14:47:29.255Z,4.25
2023-04-14T14:50:00.987Z,4.75
2023-04-14T14:52:34.225Z,5.22
2023-04-14T14:55:01.646Z,6.32
2023-04-14T14:57:29.569Z,4.47
2023-04-14T14:59:57.282Z,3.70
2023-04-14T15:02:25.590Z,5.55
2023-04-14T15:04:52.970Z,7.38
2023-04-14T15:07:22.703Z,6.40
2023-04-14T15:09:50.688Z,4.95
2023-04-14T15:12:18.630Z,4.85
2023-04-14T15:14:45.691Z,5.13
2023-04-14T15:17:12.532Z,4.28
2023-04-14T15:19:40.475Z,7.55
2023-04-14T15:22:08.189Z,4.40
2023-04-14T15:24:35.297Z,6.00
2023-04-14T15:27:04.037Z,3.97
2023-04-14T15:29:31.688Z,3.78
2023-04-14T15:31:58.913Z,3.75
2023-04-14T15:34:26.420Z,4.38
2023-04-14T15:36:53.282Z,2.53
2023-04-14T15:39:23.779Z,4.78
2023-04-14T15:41:50.782Z,3.72
2023-04-14T15:44:19.009Z,3.95
2023-04-14T15:46:46.629Z,3.33
2023-04-14T15:49:13.390Z,4.40
2023-04-14T15:51:40.885Z,3.67
2023-04-14T15:54:08.462Z,4.75
2023-04-14T15:56:36.054Z,4.05
2023-04-14T15:59:03.154Z,5.40
2023-04-14T16:01:29.952Z,5.50
2023-04-14T16:03:57.417Z,3.97
2023-04-14T16:06:25.377Z,3.80
2023-04-14T16:08:56.338Z,7.57
2023-04-14T16:11:24.498Z,3.55
2023-04-14T16:13:52.934Z,4.05
2023-04-14T16:16:22.540Z,4.75
2023-04-14T16:18:49.689Z,4.75
2023-04-14T16:21:16.834Z,4.38
2023-04-14T16:23:43.898Z,3.97
2023-04-14T16:26:11.403Z,3.08
2023-04-14T16:28:38.413Z,4.28
2023-04-14T16:31:06.089Z,3.33
2023-04-14T16:33:33.371Z,3.65
2023-04-14T16:36:04.203Z,7.47
2023-04-14T16:38:31.122Z,6.47
2023-04-14T16:40:59.064Z,7.75
2023-04-14T16:43:27.885Z,10.02
2023-04-14T16:46:02.307Z,6.93
2023-04-14T16:48:29.715Z,6.63
2023-04-14T16:50:56.741Z,8.48
2023-04-14T16:53:25.380Z,4.50
2023-04-14T16:55:52.973Z,6.20
2023-04-14T16:58:19.943Z,4.95
2023-04-14T17:00:47.244Z,6.00
2023-04-14T17:03:14.258Z,11.57
2023-04-14T17:05:41.345Z,6.00
2023-04-14T17:08:09.023Z,7.80
2023-04-14T17:10:36.001Z,5.05
2023-04-14T17:13:03.133Z,7.18
2023-04-14T17:15:33.861Z,7.75
2023-04-14T17:18:02.167Z,7.05
2023-04-14T17:20:29.765Z,5.35
2023-04-14T17:23:01.346Z,5.05
2023-04-14T17:25:28.825Z,5.40
2023-04-14T17:27:55.712Z,4.13
2023-04-14T17:30:22.498Z,6.75
2023-04-14T17:32:49.889Z,5.57
2023-04-14T17:35:17.265Z,4.75
2023-04-14T17:37:44.459Z,5.65
2023-04-14T17:40:13.968Z,8.02
2023-04-14T17:42:42.531Z,5.65
2023-04-14T17:45:10.473Z,4.40
2023-04-14T17:47:40.152Z,6.95
2023-04-14T17:50:10.774Z,6.30
2023-04-14T17:52:40.436Z,4.97
2023-04-14T17:55:09.302Z,6.43
2023-04-14T17:57:36.553Z,6.00
2023-04-14T18:00:04.529Z,5.38
2023-04-14T18:02:36.895Z,4.03
2023-04-14T18:05:04.508Z,8.13
2023-04-14T18:07:32.322Z,6.82
2023-04-14T18:09:59.038Z,7.47
2023-04-14T18:12:26.333Z,84.20
2023-04-14T18:14:54.623Z,49.85
2023-04-14T18:17:22.951Z,55.75
2023-04-14T18:19:49.875Z,39.08
2023-04-14T18:22:16.724Z,11.93
2023-04-14T18:29:43.660Z,9.70
2023-04-14T18:32:10.623Z,6.10
2023-04-14T18:34:37.808Z,4.65
2023-04-14T18:37:04.648Z,4.50
2023-04-14T18:39:35.326Z,5.57
2023-04-14T18:42:02.186Z,5.60
2023-04-14T18:44:29.461Z,7.35
2023-04-14T18:46:56.609Z,7.07
2023-04-14T18:49:23.913Z,10.73
2023-04-14T18:51:51.175Z,5.75
2023-04-14T18:54:18.059Z,10.27
2023-04-14T18:56:45.351Z,13.52
2023-04-14T18:59:13.109Z,14.27
2023-04-14T19:01:39.969Z,7.93
2023-04-14T19:04:07.950Z,9.43
2023-04-14T19:06:35.128Z,11.93
2023-04-14T19:09:02.368Z,7.03
2023-04-14T19:11:29.852Z,7.50
2023-04-14T19:13:56.693Z,4.70
2023-04-14T19:16:23.448Z,5.57
2023-04-14T19:18:50.344Z,7.05
2023-04-14T19:21:17.540Z,5.28
2023-04-14T19:23:46.033Z,4.45
2023-04-14T19:26:13.882Z,4.50
2023-04-14T19:28:42.655Z,5.63
2023-04-14T19:31:10.379Z,4.45
2023-04-14T19:33:37.893Z,5.30
2023-04-14T19:36:14.612Z,3.75
2023-04-14T19:38:41.785Z,4.57
2023-04-14T19:41:12.164Z,3.90
2023-04-14T19:43:39.161Z,5.78
2023-04-14T19:46:07.527Z,5.20
2023-04-14T19:48:34.665Z,6.75
2023-04-14T19:51:04.941Z,3.88
2023-04-14T19:53:31.981Z,3.97
2023-04-14T19:55:58.927Z,8.30
2023-04-14T19:58:27.385Z,4.82
2023-04-14T20:00:56.433Z,4.18
2023-04-14T20:03:24.492Z,3.90
2023-04-14T20:05:52.830Z,5.70
2023-04-14T20:08:20.914Z,4.57
2023-04-14T20:10:51.604Z,5.93
2023-04-14T20:13:22.794Z,4.03
2023-04-14T20:15:50.003Z,6.10
2023-04-14T20:18:18.136Z,11.32
2023-04-14T20:20:46.076Z,5.80
2023-04-14T20:23:12.832Z,6.93
2023-04-14T20:25:39.895Z,8.60
2023-04-14T20:28:07.743Z,4.63
2023-04-14T20:30:34.575Z,8.15
2023-04-14T20:33:04.601Z,8.85
2023-04-14T20:35:35.067Z,9.20
2023-04-14T20:38:01.842Z,10.52
2023-04-14T20:40:29.409Z,10.13
2023-04-14T20:42:56.178Z,7.65
2023-04-14T20:45:23.076Z,10.65
2023-04-14T20:47:50.399Z,10.57
2023-04-14T20:50:18.143Z,19.30
2023-04-14T20:52:45.257Z,21.20
2023-04-14T20:55:13.649Z,14.60
2023-04-14T20:57:43.560Z,10.77
2023-04-14T21:00:12.258Z,8.68
2023-04-14T21:02:39.292Z,8.60
2023-04-14T21:05:07.236Z,10.93
2023-04-14T21:07:35.775Z,8.18
2023-04-14T21:10:07.336Z,9.15
2023-04-14T21:12:35.908Z,14.35
2023-04-14T21:15:47.387Z,11.82
2023-04-14T21:17:52.920Z,9.15
2023-04-14T21:20:19.687Z,8.73
2023-04-14T21:22:46.882Z,8.07
2023-04-14T21:25:13.930Z,7.82
2023-04-14T21:27:43.423Z,7.82
2023-04-14T21:30:11.029Z,7.72
2023-04-14T21:32:39.705Z,10.68
2023-04-14T21:35:07.732Z,8.77
2023-04-14T21:37:34.631Z,10.52
2023-04-14T21:40:04.579Z,11.27
2023-04-14T21:42:31.780Z,11.52
2023-04-14T21:44:58.603Z,7.93
2023-04-14T21:47:25.383Z,11.20
2023-04-14T21:49:52.112Z,8.43
2023-04-14T21:52:19.356Z,10.82
2023-04-14T21:54:47.775Z,13.82
2023-04-14T21:57:14.490Z,10.02
2023-04-14T21:59:41.601Z,14.20
2023-04-14T22:02:08.418Z,9.00
2023-04-14T22:04:36.816Z,9.65
2023-04-14T22:07:03.959Z,16.30
2023-04-14T22:09:30.755Z,12.55
2023-04-14T22:11:57.921Z,9.40
2023-04-14T22:14:24.757Z,9.95
2023-04-14T22:16:51.542Z,13.27
2023-04-14T22:19:20.014Z,10.02
2023-04-14T22:21:47.658Z,9.82
2023-04-14T22:24:14.745Z,8.20
2023-04-14T22:26:42.391Z,8.35
2023-04-14T22:29:11.449Z,7.53
2023-04-14T22:31:38.734Z,8.25
2023-04-14T22:34:05.942Z,10.23
2023-04-14T22:36:32.680Z,13.63
2023-04-14T22:38:59.633Z,13.07
2023-04-14T22:41:26.527Z,13.88
2023-04-14T22:43:53.258Z,10.43
2023-04-14T22:46:20.136Z,9.60
2023-04-14T22:48:47.454Z,11.70
2023-04-14T22:51:14.278Z,12.93
2023-04-14T22:53:41.515Z,9.30
2023-04-14T22:56:08.832Z,9.65
2023-04-14T22:58:39.510Z,11.68
2023-04-14T23:01:19.025Z,11.18
2023-04-14T23:03:51.338Z,8.10
2023-04-14T23:06:22.215Z,8.00
2023-04-14T23:08:50.052Z,7.30
2023-04-14T23:11:20.250Z,17.70
2023-04-14T23:13:48.114Z,10.18
2023-04-14T23:16:16.901Z,10.75
2023-04-14T23:18:43.993Z,12.05
2023-04-14T23:21:11.167Z,19.75
2023-04-14T23:23:38.162Z,12.52
2023-04-14T23:26:04.911Z,8.57
2023-04-14T23:28:31.839Z,7.82
2023-04-14T23:30:58.868Z,9.10
2023-04-14T23:33:25.783Z,7.72
2023-04-14T23:35:52.875Z,8.45
2023-04-14T23:38:19.746Z,11.02
2023-04-14T23:40:46.919Z,10.23
2023-04-14T23:43:13.583Z,10.77
2023-04-14T23:45:40.318Z,9.70
2023-04-14T23:48:07.722Z,8.93
2023-04-14T23:51:00.120Z,11.30
2023-04-14T23:53:21.536Z,7.18
2023-04-14T23:55:48.677Z,8.80
2023-04-14T23:58:26.095Z,7.25
